createdAt,value
2018-12-13T00:00:16.462Z,103015.70
2018-12-13T00:02:45.395Z,103013.02
2018-12-13T00:05:14.031Z,103001.36
2018-12-13T00:07:43.794Z,103003.58
2018-12-13T00:10:12.532Z,103008.97
2018-12-13T00:12:41.108Z,103004.92
2018-12-13T00:15:09.797Z,103001.83
2018-12-13T00:17:38.631Z,103004.52
2018-12-13T00:20:07.861Z,103006.27
2018-12-13T00:22:36.676Z,103007.62
2018-12-13T00:25:05.807Z,103002.70
2018-12-13T00:27:34.568Z,103008.97
2018-12-13T00:30:03.597Z,103006.27
2018-12-13T00:32:32.322Z,103013.48
2018-12-13T00:35:00.887Z,103006.75
2018-12-13T00:37:29.604Z,103006.75
2018-12-13T00:39:58.506Z,103005.39
2018-12-13T00:42:27.247Z,103005.39
2018-12-13T00:44:56.945Z,103004.49
2018-12-13T00:47:25.672Z,103004.86
2018-12-13T00:49:54.552Z,103005.37
2018-12-13T00:52:23.489Z,103001.33
2018-12-13T00:54:52.215Z,103004.86
2018-12-13T00:57:20.845Z,103004.39
2018-12-13T00:59:49.516Z,102998.53
2018-12-13T01:02:18.215Z,102992.67
2018-12-13T01:04:47.021Z,102989.58
2018-12-13T01:07:15.806Z,102997.59
2018-12-13T01:09:44.410Z,102996.72
2018-12-13T01:12:13.096Z,102994.02
2018-12-13T01:14:42.019Z,102993.92
2018-12-13T01:17:10.995Z,102991.23
2018-12-13T01:19:39.753Z,102996.16
2018-12-13T01:22:08.435Z,103000.19
2018-12-13T01:24:37.262Z,102996.16
2018-12-13T01:27:05.893Z,102997.50
2018-12-13T01:29:34.814Z,102997.97
2018-12-13T01:32:03.948Z,102999.78
2018-12-13T01:34:32.604Z,102993.45
2018-12-13T01:37:01.488Z,103001.55
2018-12-13T01:39:30.250Z,103002.01
2018-12-13T01:41:58.889Z,102996.63
2018-12-13T01:44:27.645Z,102999.78
2018-12-13T01:46:56.430Z,102991.64
2018-12-13T01:49:25.085Z,102999.41
2018-12-13T01:51:53.865Z,102993.55
2018-12-13T01:54:22.700Z,102997.59
2018-12-13T01:56:51.660Z,102999.41
2018-12-13T01:59:20.301Z,102998.94
2018-12-13T02:01:48.970Z,102998.94
2018-12-13T02:04:17.617Z,102998.53
2018-12-13T02:06:46.373Z,102994.50
2018-12-13T02:09:15.123Z,102998.06
2018-12-13T02:11:44.032Z,103001.64
2018-12-13T02:14:12.747Z,102994.02
2018-12-13T02:16:41.432Z,102994.97
2018-12-13T02:19:10.287Z,102992.27
2018-12-13T02:21:39.112Z,102997.19
2018-12-13T02:24:07.754Z,102989.58
2018-12-13T02:26:36.686Z,102999.00
2018-12-13T02:29:05.541Z,103002.67
2018-12-13T02:31:34.504Z,103001.70
2018-12-13T02:34:03.160Z,103003.05
2018-12-13T02:36:31.839Z,103009.78
2018-12-13T02:39:00.492Z,103005.37
2018-12-13T02:41:29.322Z,103015.27
2018-12-13T02:43:58.019Z,103012.95
2018-12-13T02:46:26.678Z,103004.92
2018-12-13T02:49:05.168Z,103004.49
2018-12-13T02:51:34.065Z,103009.41
2018-12-13T02:54:02.840Z,103002.23
2018-12-13T02:56:31.643Z,103010.31
2018-12-13T02:59:00.246Z,103009.87
2018-12-13T03:01:28.853Z,103013.92
2018-12-13T03:03:57.564Z,103012.57
2018-12-13T03:06:26.407Z,103011.66
2018-12-13T03:08:55.013Z,103015.70
2018-12-13T03:11:23.918Z,103013.02
2018-12-13T03:13:52.700Z,103013.02
2018-12-13T03:16:21.533Z,103014.83
2018-12-13T03:18:50.105Z,103013.48
2018-12-13T03:21:18.843Z,103012.13
2018-12-13T03:23:47.794Z,103007.62
2018-12-13T03:26:16.657Z,103007.22
2018-12-13T03:28:45.211Z,103005.87
2018-12-13T03:31:13.870Z,103009.06
2018-12-13T03:33:42.675Z,103006.37
2018-12-13T03:36:11.295Z,103007.22
2018-12-13T03:38:39.907Z,103008.09
2018-12-13T03:41:09.198Z,103005.39
2018-12-13T03:43:38.517Z,103001.83
2018-12-13T03:46:07.335Z,103005.02
2018-12-13T03:48:36.184Z,102995.59
2018-12-13T03:51:05.147Z,102989.23
2018-12-13T03:53:33.751Z,102988.86
2018-12-13T03:56:02.383Z,102989.70
2018-12-13T03:58:31.084Z,102987.52
2018-12-13T04:00:59.712Z,102989.70
2018-12-13T04:03:28.571Z,102989.33
2018-12-13T04:05:57.163Z,102988.86
2018-12-13T04:08:26.073Z,102986.16
2018-12-13T04:10:55.011Z,102985.76
2018-12-13T04:13:23.695Z,102990.27
2018-12-13T04:15:52.430Z,102985.86
2018-12-13T04:18:21.084Z,102980.94
2018-12-13T04:20:49.947Z,102979.13
2018-12-13T04:23:18.536Z,102984.51
2018-12-13T04:25:47.186Z,102984.98
2018-12-13T04:28:15.923Z,102990.37
2018-12-13T04:30:44.579Z,102992.59
2018-12-13T04:33:13.432Z,102984.51
2018-12-13T04:35:42.093Z,102987.20
2018-12-13T04:38:10.975Z,102986.33
2018-12-13T04:40:40.544Z,102982.28
2018-12-13T04:43:09.220Z,102983.63
2018-12-13T04:45:38.040Z,102983.63
2018-12-13T04:48:06.704Z,102985.05
2018-12-13T04:50:35.339Z,102985.92
2018-12-13T04:53:03.983Z,102985.92
2018-12-13T04:55:32.592Z,102982.34
2018-12-13T04:58:01.224Z,102977.94
2018-12-13T05:00:29.937Z,102984.10
2018-12-13T05:02:58.684Z,102974.27
2018-12-13T05:05:27.369Z,102976.95
2018-12-13T05:07:55.987Z,102976.95
2018-12-13T05:10:35.764Z,102976.12
2018-12-13T05:13:05.772Z,102969.38
2018-12-13T05:15:34.846Z,102977.94
2018-12-13T05:18:04.136Z,102970.80
2018-12-13T05:20:32.951Z,102971.20
2018-12-13T05:23:01.910Z,102974.83
2018-12-13T05:25:30.759Z,102976.59
2018-12-13T05:27:59.719Z,102973.42
2018-12-13T05:30:28.667Z,102967.16
2018-12-13T05:32:57.616Z,102970.33
2018-12-13T05:35:26.203Z,102973.89
2018-12-13T05:37:54.834Z,102975.61
2018-12-13T05:40:23.526Z,102974.36
2018-12-13T05:42:52.409Z,102966.28
2018-12-13T05:45:21.249Z,102973.42
2018-12-13T05:47:50.838Z,102975.61
2018-12-13T05:50:19.558Z,102974.36
2018-12-13T05:52:49.087Z,102981.97
2018-12-13T05:55:17.923Z,102976.59
2018-12-13T05:57:47.292Z,102977.94
2018-12-13T06:00:16.095Z,102979.28
2018-12-13T06:02:44.768Z,102982.85
2018-12-13T06:05:13.699Z,102979.75
2018-12-13T06:07:42.362Z,102977.46
2018-12-13T06:10:11.929Z,102980.62
2018-12-13T06:12:40.512Z,102982.34
2018-12-13T06:15:09.384Z,102992.75
2018-12-13T06:17:38.047Z,102995.44
2018-12-13T06:20:06.800Z,102988.71
2018-12-13T06:22:35.374Z,102990.93
2018-12-13T06:25:04.812Z,102982.85
2018-12-13T06:27:33.595Z,102984.10
2018-12-13T06:30:07.407Z,102988.14
2018-12-13T06:32:33.003Z,102989.48
2018-12-13T06:35:01.702Z,102984.10
2018-12-13T06:37:30.381Z,102985.86
2018-12-13T06:39:58.995Z,102984.88
2018-12-13T06:42:27.762Z,102987.58
2018-12-13T06:44:56.647Z,102983.94
2018-12-13T06:47:25.282Z,102987.58
2018-12-13T06:49:54.117Z,102989.80
2018-12-13T06:52:22.800Z,102998.76
2018-12-13T06:54:51.387Z,102997.88
2018-12-13T06:57:20.148Z,103002.33
2018-12-13T06:59:48.978Z,102996.94
2018-12-13T07:02:17.554Z,102997.41
2018-12-13T07:04:46.225Z,103005.49
2018-12-13T07:07:14.978Z,103001.92
2018-12-13T07:09:43.627Z,103000.58
2018-12-13T07:12:12.563Z,103002.80
2018-12-13T07:14:41.550Z,103010.48
2018-12-13T07:17:10.292Z,103008.66
2018-12-13T07:19:38.902Z,103007.78
2018-12-13T07:22:07.557Z,103010.48
2018-12-13T07:24:36.530Z,103013.17
2018-12-13T07:27:06.359Z,103009.53
2018-12-13T07:29:35.534Z,103003.73
2018-12-13T07:32:04.263Z,103005.55
2018-12-13T07:34:32.833Z,103002.02
2018-12-13T07:37:01.503Z,103004.72
2018-12-13T07:39:30.106Z,103005.55
2018-12-13T07:41:58.752Z,103007.41
2018-12-13T07:44:27.402Z,103011.45
2018-12-13T07:46:55.971Z,103005.19
2018-12-13T07:49:24.561Z,103004.31
2018-12-13T07:51:53.200Z,103005.19
2018-12-13T07:54:21.789Z,103014.52
2018-12-13T07:56:50.493Z,103015.86
2018-12-13T07:59:19.319Z,103023.95
2018-12-13T08:01:47.901Z,103013.17
2018-12-13T08:04:16.492Z,103018.09
2018-12-13T08:06:45.332Z,103021.66
2018-12-13T08:09:14.056Z,103014.52
2018-12-13T08:11:42.846Z,103015.80
2018-12-13T08:14:11.843Z,103021.19
2018-12-13T08:16:40.437Z,103017.15
2018-12-13T08:19:09.527Z,103015.80
2018-12-13T08:21:38.416Z,103017.20
2018-12-13T08:24:07.041Z,103025.70
2018-12-13T08:26:35.752Z,103018.97
2018-12-13T08:29:04.495Z,103020.31
2018-12-13T08:31:33.277Z,103022.03
2018-12-13T08:34:02.051Z,103023.00
2018-12-13T08:36:30.722Z,103024.83
2018-12-13T08:38:59.507Z,103026.64
2018-12-13T08:41:28.359Z,103030.68
2018-12-13T08:43:57.013Z,103035.12
2018-12-13T08:46:25.947Z,103034.72
2018-12-13T08:48:54.786Z,103032.49
2018-12-13T08:51:23.708Z,103032.03
2018-12-13T08:53:52.671Z,103027.11
2018-12-13T08:56:21.232Z,103029.42
2018-12-13T08:58:49.938Z,103034.81
2018-12-13T09:01:19.108Z,103030.30
2018-12-13T09:03:47.983Z,103030.77
2018-12-13T09:06:16.685Z,103033.94
2018-12-13T09:08:45.328Z,103029.02
2018-12-13T09:11:14.210Z,103032.59
2018-12-13T09:13:43.045Z,103026.33
2018-12-13T09:16:12.233Z,103028.55
2018-12-13T09:18:41.301Z,103025.95
2018-12-13T09:21:10.161Z,103021.41
2018-12-13T09:23:39.064Z,103028.64
2018-12-13T09:26:07.634Z,103020.56
2018-12-13T09:28:36.533Z,103022.38
2018-12-13T09:31:05.285Z,103021.03
2018-12-13T09:33:34.069Z,103019.22
2018-12-13T09:36:03.996Z,103011.20
2018-12-13T09:38:32.771Z,103012.55
2018-12-13T09:41:01.963Z,103016.59
2018-12-13T09:43:30.568Z,103019.28
2018-12-13T09:45:59.132Z,103012.55
2018-12-13T09:48:27.999Z,103015.23
2018-12-13T09:50:56.670Z,103007.16
2018-12-13T09:53:25.492Z,103011.20
2018-12-13T09:55:54.500Z,103011.30
2018-12-13T09:58:23.445Z,103004.56
2018-12-13T10:00:52.442Z,103007.25
2018-12-13T10:03:21.131Z,103009.95
2018-12-13T10:05:50.024Z,103012.23
2018-12-13T10:08:18.814Z,103015.34
2018-12-13T10:10:47.692Z,103012.23
2018-12-13T10:13:16.694Z,103009.07
2018-12-13T10:15:45.537Z,103005.97
2018-12-13T10:18:15.750Z,103005.97
2018-12-13T10:20:44.703Z,103000.58
2018-12-13T10:25:41.405Z,103007.41
2018-12-13T10:28:10.155Z,103001.62
2018-12-13T10:30:39.092Z,103002.49
2018-12-13T10:33:07.916Z,102991.81
2018-12-13T10:35:36.833Z,102997.58
2018-12-13T10:38:06.899Z,102987.77
2018-12-13T10:40:35.770Z,102985.55
2018-12-13T10:43:04.734Z,102984.20
2018-12-13T10:45:33.728Z,102982.92
2018-12-13T10:48:02.671Z,102987.84
2018-12-13T10:50:31.568Z,102978.41
2018-12-13T10:53:00.202Z,102982.08
2018-12-13T10:55:29.145Z,102977.53
2018-12-13T10:57:57.868Z,102974.00
2018-12-13T11:00:32.085Z,102973.13
2018-12-13T11:03:17.362Z,102974.47
2018-12-13T11:05:46.256Z,102975.81
2018-12-13T11:08:14.996Z,102978.09
2018-12-13T11:10:43.655Z,102974.53
2018-12-13T11:13:12.739Z,102970.02
2018-12-13T11:15:41.528Z,102970.49
2018-12-13T11:18:10.528Z,102973.19
2018-12-13T11:20:39.612Z,102972.25
2018-12-13T11:23:08.494Z,102969.64
2018-12-13T11:25:37.502Z,102964.26
2018-12-13T11:28:17.483Z,102966.45
2018-12-13T11:30:46.437Z,102975.03
2018-12-13T11:33:15.547Z,102971.47
2018-12-13T11:35:44.599Z,102977.73
2018-12-13T11:38:13.697Z,102967.89
2018-12-13T11:40:42.532Z,102973.28
2018-12-13T11:43:11.259Z,102971.47
2018-12-13T11:45:40.146Z,102975.03
2018-12-13T11:48:09.049Z,102974.16
2018-12-13T11:50:38.023Z,102976.38
2018-12-13T11:53:06.891Z,102970.99
2018-12-13T11:55:37.746Z,102966.08
2018-12-13T11:58:08.927Z,102969.64
2018-12-13T12:00:38.023Z,102972.81
2018-12-13T12:03:06.720Z,102975.03
2018-12-13T12:05:35.743Z,102978.57
2018-12-13T12:08:04.787Z,102989.34
2018-12-13T12:10:33.780Z,102989.28
2018-12-13T12:13:02.423Z,102984.84
2018-12-13T12:15:31.061Z,102987.94
2018-12-13T12:17:59.826Z,102991.09
2018-12-13T12:20:28.409Z,102993.32
2018-12-13T12:22:57.339Z,102992.85
2018-12-13T12:25:26.261Z,102994.57
2018-12-13T12:27:55.052Z,102989.66
2018-12-13T12:30:23.902Z,103001.30
2018-12-13T12:32:52.559Z,103000.84
2018-12-13T12:35:21.432Z,102997.67
2018-12-13T12:37:50.405Z,102986.19
2018-12-13T12:40:19.077Z,102994.52
2018-12-13T12:42:47.669Z,102997.20
2018-12-13T12:45:16.338Z,102988.25
2018-12-13T12:47:45.275Z,102993.16
2018-12-13T12:50:13.930Z,102987.27
2018-12-13T12:52:42.671Z,102989.03
2018-12-13T12:55:11.744Z,102987.27
2018-12-13T12:57:40.631Z,102987.27
2018-12-13T13:00:10.374Z,102981.42
2018-12-13T13:02:39.346Z,102973.34
2018-12-13T13:05:08.362Z,102972.46
2018-12-13T13:07:37.213Z,102975.16
2018-12-13T13:10:07.617Z,102977.84
2018-12-13T13:12:36.651Z,102981.88
2018-12-13T13:15:05.750Z,102980.07
2018-12-13T13:17:34.599Z,102978.34
2018-12-13T13:20:03.353Z,102981.05
2018-12-13T13:22:32.311Z,102984.20
2018-12-13T13:25:01.021Z,102984.20
2018-12-13T13:27:29.664Z,102981.05
2018-12-13T13:29:58.304Z,102989.13
2018-12-13T13:32:27.004Z,102990.94
2018-12-13T13:34:55.706Z,102990.94
2018-12-13T13:37:24.503Z,102985.55
2018-12-13T13:39:53.268Z,102985.55
2018-12-13T13:42:21.970Z,102989.59
2018-12-13T13:44:54.873Z,102986.90
2018-12-13T13:47:23.825Z,102985.61
2018-12-13T13:49:52.886Z,102985.55
2018-12-13T13:52:21.790Z,102991.88
2018-12-13T13:54:50.648Z,102989.59
2018-12-13T13:57:19.420Z,102985.55
2018-12-13T13:59:48.083Z,102984.67
2018-12-13T14:02:16.908Z,102994.11
2018-12-13T14:04:45.992Z,102986.49
2018-12-13T14:07:14.852Z,102985.14
2018-12-13T14:09:43.523Z,102989.19
2018-12-13T14:12:12.539Z,102993.70
2018-12-13T14:14:41.249Z,102991.00
2018-12-13T14:17:10.011Z,102993.23
2018-12-13T14:19:38.788Z,102995.55
2018-12-13T14:22:07.458Z,102991.50
2018-12-13T14:24:36.152Z,102997.27
2018-12-13T14:27:06.031Z,102995.05
2018-12-13T14:29:34.731Z,102993.70
2018-12-13T14:32:03.469Z,102994.20
2018-12-13T14:34:32.190Z,102990.53
2018-12-13T14:37:00.901Z,102991.88
2018-12-13T14:39:29.681Z,102990.62
2018-12-13T14:41:58.391Z,102982.08
2018-12-13T14:44:27.105Z,102987.84
2018-12-13T14:46:55.807Z,102989.19
2018-12-13T14:49:24.549Z,102990.53
2018-12-13T14:51:53.326Z,103003.06
2018-12-13T14:54:22.363Z,102995.92
2018-12-13T14:56:51.333Z,102995.45
2018-12-13T14:59:20.153Z,102992.85
2018-12-13T15:01:49.124Z,102987.84
2018-12-13T15:04:17.980Z,102996.39
2018-12-13T15:06:46.891Z,102996.89
2018-12-13T15:09:15.686Z,102989.66
2018-12-13T15:11:44.423Z,102993.70
2018-12-13T15:14:13.349Z,102990.06
2018-12-13T15:16:42.315Z,102985.14
2018-12-13T15:19:11.302Z,102981.98
2018-12-13T15:21:40.185Z,102988.25
2018-12-13T15:24:09.090Z,102986.90
2018-12-13T15:26:37.871Z,102986.90
2018-12-13T15:29:06.641Z,102993.23
2018-12-13T15:31:35.359Z,102996.80
2018-12-13T15:34:04.193Z,102992.76
2018-12-13T15:36:32.867Z,102994.57
2018-12-13T15:39:01.561Z,102999.95
2018-12-13T15:41:30.521Z,102995.55
2018-12-13T15:43:59.522Z,103003.53
2018-12-13T15:46:28.292Z,102998.70
2018-12-13T15:48:57.280Z,103006.70
2018-12-13T15:51:26.004Z,103007.16
2018-12-13T15:53:54.603Z,102999.59
2018-12-13T15:56:23.341Z,102999.17
2018-12-13T15:58:52.004Z,102996.48
2018-12-13T16:01:20.920Z,102996.95
2018-12-13T16:03:49.515Z,103006.37
2018-12-13T16:06:18.187Z,103001.46
2018-12-13T16:08:46.790Z,103003.31
2018-12-13T16:11:16.195Z,103007.73
2018-12-13T16:13:44.817Z,103007.35
2018-12-13T16:16:14.130Z,103002.44
2018-12-13T16:18:42.771Z,103001.97
2018-12-13T16:21:12.428Z,103008.20
2018-12-13T16:23:41.309Z,103007.41
2018-12-13T16:26:10.293Z,103011.45
2018-12-13T16:28:39.094Z,103006.95
2018-12-13T16:31:07.930Z,103003.37
2018-12-13T16:33:36.712Z,103008.70
2018-12-13T16:36:05.765Z,103002.44
2018-12-13T16:38:34.663Z,103001.09
2018-12-13T16:41:03.460Z,102997.52
2018-12-13T16:43:33.660Z,102994.36
2018-12-13T16:46:03.377Z,102997.98
2018-12-13T16:48:32.352Z,102997.98
2018-12-13T16:51:01.111Z,102999.80
2018-12-13T16:53:29.781Z,102997.52
2018-12-13T16:55:58.487Z,103001.56
2018-12-13T16:58:28.873Z,102993.95
2018-12-13T17:00:57.541Z,102993.95
2018-12-13T17:03:37.282Z,102992.60
2018-12-13T17:06:06.232Z,102993.07
2018-12-13T17:08:35.278Z,102996.64
2018-12-13T17:11:04.489Z,103004.72
2018-12-13T17:13:33.486Z,103003.00
2018-12-13T17:16:02.766Z,103005.70
2018-12-13T17:18:31.552Z,103005.70
2018-12-13T17:21:00.566Z,103003.37
2018-12-13T17:23:29.476Z,103002.50
2018-12-13T17:25:58.428Z,103003.00
2018-12-13T17:28:27.184Z,102998.96
2018-12-13T17:30:56.319Z,102998.45
2018-12-13T17:33:25.247Z,103003.84
2018-12-13T17:35:54.183Z,102998.96
2018-12-13T17:38:23.076Z,102998.86
2018-12-13T17:40:52.110Z,103001.56
2018-12-13T17:43:21.204Z,103002.91
2018-12-13T17:45:50.144Z,102998.40
2018-12-13T17:48:19.713Z,103000.62
2018-12-13T17:50:48.458Z,102989.53
2018-12-13T17:53:17.412Z,102997.92
2018-12-13T17:55:46.287Z,102997.92
2018-12-13T17:58:15.342Z,102998.23
2018-12-13T18:00:44.339Z,103004.09
2018-12-13T18:03:13.596Z,103001.40
2018-12-13T18:05:42.626Z,103011.70
2018-12-13T18:08:11.373Z,103008.13
2018-12-13T18:10:40.025Z,103007.66
2018-12-13T18:13:08.840Z,103010.73
2018-12-13T18:15:37.792Z,103010.27
2018-12-13T18:18:06.792Z,103007.56
2018-12-13T18:20:35.769Z,103010.73
2018-12-13T18:23:05.273Z,103008.04
2018-12-13T18:25:34.207Z,103015.66
2018-12-13T18:28:03.501Z,103010.73
2018-12-13T18:30:32.333Z,103014.77
2018-12-13T18:33:01.267Z,103017.00
2018-12-13T18:35:30.266Z,103010.36
2018-12-13T18:37:58.934Z,103008.04
2018-12-13T18:40:27.816Z,103010.73
2018-12-13T18:42:56.758Z,103013.52
2018-12-13T18:45:25.575Z,103013.05
2018-12-13T18:47:54.716Z,103015.23
2018-12-13T18:50:23.708Z,103017.94
2018-12-13T18:52:52.415Z,103018.91
2018-12-13T18:55:21.141Z,103017.09
2018-12-13T18:57:50.221Z,103022.48
2018-12-13T19:00:18.983Z,103025.17
2018-12-13T19:02:47.746Z,103030.16
2018-12-13T19:05:16.796Z,103033.25
2018-12-13T19:07:45.953Z,103026.98
2018-12-13T19:10:14.885Z,103029.21
2018-12-13T19:12:44.652Z,103036.41
2018-12-13T19:15:14.352Z,103032.84
2018-12-13T19:17:43.124Z,103041.33
2018-12-13T19:20:12.598Z,103038.23
2018-12-13T19:22:42.060Z,103033.31
2018-12-13T19:25:11.957Z,103036.00
2018-12-13T19:27:41.237Z,103048.13
2018-12-13T19:30:11.148Z,103046.72
2018-12-13T19:32:40.503Z,103047.66
2018-12-13T19:35:09.801Z,103051.70
2018-12-13T19:37:39.395Z,103049.88
2018-12-13T19:40:08.463Z,103050.34
2018-12-13T19:42:37.850Z,103054.39
2018-12-13T19:45:07.454Z,103047.25
2018-12-13T19:47:36.718Z,103054.86
2018-12-13T19:50:07.154Z,103053.05
2018-12-13T19:52:36.478Z,103054.86
2018-12-13T19:55:06.409Z,103052.17
2018-12-13T19:57:35.283Z,103049.88
2018-12-13T20:00:04.924Z,103049.00
2018-12-13T20:02:33.918Z,103051.70
2018-12-13T20:05:02.786Z,103053.05
2018-12-13T20:07:31.506Z,103064.28
2018-12-13T20:10:00.443Z,103067.39
2018-12-13T20:12:29.509Z,103069.20
2018-12-13T20:14:58.454Z,103072.84
2018-12-13T20:17:27.446Z,103082.20
2018-12-13T20:19:56.196Z,103077.28
2018-12-13T20:22:24.989Z,103081.73
2018-12-13T20:24:53.714Z,103079.10
2018-12-13T20:27:22.438Z,103085.83
2018-12-13T20:29:51.214Z,103084.02
2018-12-13T20:32:20.397Z,103085.36
2018-12-13T20:34:49.407Z,103079.51
2018-12-13T20:37:18.079Z,103078.63
2018-12-13T20:39:47.085Z,103072.77
2018-12-13T20:42:15.881Z,103072.77
2018-12-13T20:44:44.858Z,103070.95
2018-12-13T20:47:14.198Z,103074.13
2018-12-13T20:49:43.265Z,103062.62
2018-12-13T20:52:12.382Z,103065.16
2018-12-13T20:54:41.056Z,103067.39
2018-12-13T20:57:09.812Z,103064.28
2018-12-13T20:59:38.520Z,103063.41
2018-12-13T21:02:07.300Z,103067.45
2018-12-13T21:04:35.962Z,103067.45
2018-12-13T21:07:10.020Z,103063.03
2018-12-13T21:09:39.046Z,103066.60
2018-12-13T21:12:07.808Z,103061.69
2018-12-13T21:14:36.813Z,103067.07
2018-12-13T21:17:05.653Z,103067.07
2018-12-13T21:19:34.428Z,103066.60
2018-12-13T21:22:03.142Z,103064.75
2018-12-13T21:24:31.869Z,103061.59
2018-12-13T21:27:00.661Z,103059.78
2018-12-13T21:29:29.448Z,103063.81
2018-12-13T21:31:58.141Z,103065.63
2018-12-13T21:34:27.218Z,103059.30
2018-12-13T21:36:55.972Z,103063.81
2018-12-13T21:39:24.785Z,103056.61
2018-12-13T21:41:53.678Z,103059.30
2018-12-13T21:44:22.522Z,103065.07
2018-12-13T21:46:51.247Z,103062.78
2018-12-13T21:49:19.990Z,103062.31
2018-12-13T21:51:48.840Z,103061.84
2018-12-13T21:54:17.662Z,103062.69
2018-12-13T21:56:46.676Z,103065.38
2018-12-13T21:59:15.446Z,103057.30
2018-12-13T22:01:44.166Z,103058.19
2018-12-13T22:04:13.194Z,103058.59
2018-12-13T22:06:41.878Z,103053.20
2018-12-13T22:09:10.574Z,103058.13
2018-12-13T22:11:39.384Z,103054.55
2018-12-13T22:14:08.179Z,103054.08
2018-12-13T22:16:36.906Z,103058.02
2018-12-13T22:19:05.940Z,103063.88
2018-12-13T22:21:34.597Z,103057.56
2018-12-13T22:24:03.286Z,103057.09
2018-12-13T22:26:32.012Z,103062.94
2018-12-13T22:29:00.669Z,103062.94
2018-12-13T22:31:29.532Z,103066.11
2018-12-13T22:33:58.220Z,103059.84
2018-12-13T22:36:26.976Z,103060.25
2018-12-13T22:38:55.684Z,103062.53
2018-12-13T22:41:26.521Z,103057.15
2018-12-13T22:43:55.067Z,103059.05
2018-12-13T22:48:51.383Z,103063.56
2018-12-13T22:53:48.375Z,103068.48
2018-12-13T22:56:17.011Z,103063.10
2018-12-13T23:01:13.376Z,103060.87
2018-12-13T23:03:42.258Z,103061.75
2018-12-13T23:06:11.009Z,103059.94
2018-12-13T23:11:07.870Z,103065.23
2018-12-13T23:13:36.531Z,103056.77
2018-12-13T23:16:05.196Z,103062.53
2018-12-13T23:18:34.315Z,103065.23
2018-12-13T23:21:02.966Z,103068.33
2018-12-13T23:23:31.599Z,103062.94
2018-12-13T23:26:01.246Z,103063.41
2018-12-13T23:28:29.982Z,103066.52
2018-12-13T23:30:58.640Z,103066.98
2018-12-13T23:33:27.337Z,103064.66
2018-12-13T23:35:56.043Z,103065.17
2018-12-13T23:38:24.730Z,103068.33
2018-12-13T23:40:53.369Z,103066.02
2018-12-13T23:43:22.104Z,103066.52
2018-12-13T23:45:50.731Z,103060.25
2018-12-13T23:48:19.449Z,103059.78
2018-12-13T23:50:48.103Z,103066.02
2018-12-13T23:53:16.734Z,103061.97
2018-12-13T23:55:45.314Z,103065.64
2018-12-13T23:58:14.031Z,103067.36
